Time;durP1;ratioP1;P1;durP2;ratioP2;P2;SDS_P1;SDS_P2;PMS_P1;PMS_P2;Temp;Humidity;BMP_temperature;BMP_pressure;BME280_temperature;BME280_humidity;BME280_pressure;Samples;Min_cycle;Max_cycle;Signal;HPM_P1;HPM_P2
2021/06/03 00:02:06;;;;;;;12.88;6.72;;;18.70;99.90;;;;;;5070745;28;20892;-58
2021/06/03 00:04:32;;;;;;;12.25;6.15;;;18.60;99.90;;;;;;5070792;28;20410;-52
2021/06/03 00:06:58;;;;;;;13.45;6.68;;;18.50;99.90;;;;;;5070791;28;20412;-52
2021/06/03 00:09:24;;;;;;;15.70;6.72;;;18.40;99.90;;;;;;5069910;28;20380;-55
2021/06/03 00:11:50;;;;;;;15.20;7.00;;;18.30;99.90;;;;;;5070984;28;20384;-52
2021/06/03 00:14:17;;;;;;;13.27;7.20;;;18.30;99.90;;;;;;5069473;28;20410;-52
2021/06/03 00:16:43;;;;;;;12.57;6.97;;;18.30;99.90;;;;;;5052742;28;20475;-53
2021/06/03 00:19:10;;;;;;;10.60;6.30;;;18.40;99.90;;;;;;5069665;28;20398;-56
2021/06/03 00:21:39;;;;;;;9.75;6.20;;;18.40;99.90;;;;;;5070165;28;20482;-53
2021/06/03 00:24:06;;;;;;;11.80;6.38;;;18.40;99.90;;;;;;5069987;28;20459;-59
2021/06/03 00:26:34;;;;;;;11.73;6.80;;;18.30;99.90;;;;;;5070318;28;20383;-52
2021/06/03 00:29:00;;;;;;;9.40;6.10;;;18.20;99.90;;;;;;5070243;28;20437;-52
2021/06/03 00:31:26;;;;;;;9.25;6.28;;;18.20;99.90;;;;;;5069088;28;20463;-52
2021/06/03 00:33:52;;;;;;;9.98;5.38;;;18.30;99.90;;;;;;5070742;28;20459;-51
2021/06/03 00:36:17;;;;;;;9.20;5.70;;;18.30;99.90;;;;;;5069128;28;20388;-52
2021/06/03 00:38:43;;;;;;;11.93;6.20;;;18.20;99.90;;;;;;5079248;28;20387;-52
2021/06/03 00:41:09;;;;;;;10.65;5.93;;;18.10;99.90;;;;;;5081914;28;20376;-60
2021/06/03 00:43:35;;;;;;;9.73;6.45;;;18.10;99.90;;;;;;5070124;28;20850;-52
2021/06/03 00:46:02;;;;;;;9.03;6.50;;;18.00;99.90;;;;;;5085750;28;20377;-52
2021/06/03 00:48:28;;;;;;;10.60;6.30;;;17.80;99.90;;;;;;5089732;28;20454;-52
2021/06/03 00:50:58;;;;;;;9.83;5.67;;;17.80;99.90;;;;;;5090088;28;20871;-52
2021/06/03 00:53:24;;;;;;;10.63;6.18;;;17.80;99.90;;;;;;5078131;28;20389;-52
2021/06/03 00:55:53;;;;;;;13.25;6.25;;;17.70;99.90;;;;;;5069272;28;20606;-53
2021/06/03 00:58:19;;;;;;;9.60;6.60;;;17.70;99.90;;;;;;5069129;28;20466;-52
2021/06/03 01:00:46;;;;;;;9.52;6.50;;;17.70;99.90;;;;;;5070001;28;20838;-52
2021/06/03 01:03:12;;;;;;;10.50;6.30;;;17.70;99.90;;;;;;5069188;28;20387;-52
2021/06/03 01:06:01;;;;;;;9.25;6.30;;;17.70;99.90;;;;;;5069891;28;20384;-52
2021/06/03 01:08:49;;;;;;;10.15;6.60;;;17.60;99.90;;;;;;5069022;28;20431;-52
2021/06/03 01:11:35;;;;;;;11.13;6.30;;;17.60;99.90;;;;;;5088201;28;20431;-52
2021/06/03 01:14:03;;;;;;;12.48;7.40;;;17.50;99.90;;;;;;5089955;28;20396;-52
2021/06/03 01:16:31;;;;;;;12.23;7.10;;;17.40;99.90;;;;;;5089184;28;20442;-52
2021/06/03 01:18:59;;;;;;;10.30;7.07;;;17.30;99.90;;;;;;5071781;28;20535;-51
2021/06/03 01:21:38;;;;;;;10.90;7.30;;;17.30;99.90;;;;;;5089205;28;20385;-51
2021/06/03 01:24:26;;;;;;;13.35;7.15;;;17.10;99.90;;;;;;5071883;28;20834;-52
2021/06/03 01:26:55;;;;;;;10.45;6.90;;;17.00;99.90;;;;;;5089877;28;20406;-52
2021/06/03 01:29:21;;;;;;;17.83;7.07;;;16.90;99.90;;;;;;5088105;28;20447;-52
2021/06/03 01:31:48;;;;;;;10.13;6.80;;;16.80;99.90;;;;;;5081522;28;20383;-52
2021/06/03 01:34:15;;;;;;;9.43;6.53;;;16.80;99.90;;;;;;5068408;28;20846;-52
2021/06/03 01:36:41;;;;;;;9.53;6.00;;;16.70;99.90;;;;;;5069637;28;20383;-51
2021/06/03 01:39:09;;;;;;;9.50;6.50;;;16.70;99.90;;;;;;5051354;28;20434;-57
2021/06/03 01:41:35;;;;;;;9.57;6.20;;;16.80;99.90;;;;;;5069138;28;20376;-52
2021/06/03 01:44:02;;;;;;;8.55;5.93;;;16.70;99.90;;;;;;5068989;28;20376;-52
2021/06/03 01:46:29;;;;;;;9.70;6.20;;;16.60;99.90;;;;;;5068321;28;20566;-52
2021/06/03 01:48:57;;;;;;;9.65;5.90;;;16.60;99.90;;;;;;5069258;28;20464;-49
2021/06/03 01:51:24;;;;;;;9.23;6.20;;;16.60;99.90;;;;;;5067958;28;20897;-50
2021/06/03 01:53:50;;;;;;;9.80;6.30;;;16.60;99.90;;;;;;5069267;28;20403;-49
2021/06/03 01:56:17;;;;;;;10.05;6.70;;;16.70;99.90;;;;;;5068210;28;20438;-51
2021/06/03 01:58:45;;;;;;;9.27;6.80;;;16.70;99.90;;;;;;5069086;28;20371;-49
2021/06/03 02:01:10;;;;;;;10.87;6.83;;;16.70;99.90;;;;;;5068433;28;20934;-56
2021/06/03 02:03:36;;;;;;;10.30;6.20;;;16.70;99.90;;;;;;5069309;28;20984;-49
2021/06/03 02:06:03;;;;;;;10.20;6.73;;;16.80;99.90;;;;;;5069287;28;20388;-49
2021/06/03 02:08:29;;;;;;;10.75;6.95;;;16.90;99.90;;;;;;5068796;28;20437;-49
2021/06/03 02:10:56;;;;;;;10.63;6.60;;;17.00;99.90;;;;;;5068931;28;20380;-49
2021/06/03 02:13:44;;;;;;;10.32;6.65;;;16.90;99.90;;;;;;5068418;28;20915;-49
2021/06/03 02:16:26;;;;;;;9.80;6.60;;;16.50;99.90;;;;;;5068525;28;20440;-56
2021/06/03 02:19:02;;;;;;;10.95;7.28;;;16.30;99.90;;;;;;5051069;28;20395;-51
2021/06/03 02:21:30;;;;;;;10.43;6.78;;;16.30;99.90;;;;;;5068056;28;20428;-51
2021/06/03 02:23:59;;;;;;;9.75;6.90;;;16.40;99.90;;;;;;5068838;28;20392;-51
2021/06/03 02:26:25;;;;;;;9.27;6.68;;;16.40;99.90;;;;;;5068216;28;20388;-52
2021/06/03 02:28:52;;;;;;;11.30;7.13;;;16.40;99.90;;;;;;5068958;28;20394;-52
2021/06/03 02:31:17;;;;;;;11.20;7.85;;;16.30;99.90;;;;;;5050087;28;20396;-50
2021/06/03 02:33:43;;;;;;;10.80;7.00;;;16.40;99.90;;;;;;5068873;28;20845;-50
2021/06/03 02:36:10;;;;;;;10.55;7.00;;;16.30;99.90;;;;;;5054765;28;20442;-57
2021/06/03 02:38:36;;;;;;;9.93;6.40;;;16.30;99.90;;;;;;5084680;28;20390;-50
2021/06/03 02:41:06;;;;;;;10.52;6.55;;;16.40;99.90;;;;;;5081935;28;20424;-50
2021/06/03 02:43:33;;;;;;;9.63;6.85;;;14.60;99.90;;;;;;5091554;28;20393;-50
2021/06/03 02:46:00;;;;;;;11.77;7.30;;;16.70;99.90;;;;;;5092732;28;20390;-51
2021/06/03 02:48:26;;;;;;;12.80;7.13;;;16.80;99.90;;;;;;5091819;28;20410;-50
2021/06/03 02:50:52;;;;;;;11.10;6.82;;;16.80;99.90;;;;;;5092098;28;20451;-50
2021/06/03 02:53:18;;;;;;;13.97;7.60;;;16.80;99.90;;;;;;5090656;28;20374;-51
2021/06/03 02:55:43;;;;;;;11.70;7.18;;;16.80;99.90;;;;;;5072172;28;20456;-50
2021/06/03 02:58:10;;;;;;;11.20;7.70;;;16.70;99.90;;;;;;5071699;28;20424;-58
2021/06/03 03:00:37;;;;;;;11.45;7.05;;;16.70;99.90;;;;;;5071671;28;20368;-51
2021/06/03 03:03:04;;;;;;;10.13;6.95;;;16.80;99.90;;;;;;5072092;28;20411;-51
2021/06/03 03:05:30;;;;;;;14.80;7.00;;;16.80;99.90;;;;;;5053290;28;21023;-50
2021/06/03 03:07:56;;;;;;;12.00;7.43;;;16.80;99.90;;;;;;5071622;28;20406;-50
2021/06/03 03:10:26;;;;;;;11.65;7.55;;;16.90;99.90;;;;;;5071284;28;20445;-51
2021/06/03 03:12:52;;;;;;;11.18;8.10;;;17.00;99.90;;;;;;5071741;28;20380;-51
2021/06/03 03:15:18;;;;;;;11.73;8.00;;;16.90;99.90;;;;;;5071109;28;20511;-50
2021/06/03 03:17:46;;;;;;;11.90;7.75;;;16.90;99.90;;;;;;5053802;28;20380;-51
2021/06/03 03:20:17;;;;;;;10.55;7.22;;;16.80;99.90;;;;;;5070894;28;20457;-58
2021/06/03 03:22:42;;;;;;;10.90;7.07;;;16.90;99.90;;;;;;5071453;28;20927;-50
2021/06/03 03:25:10;;;;;;;10.10;7.00;;;17.00;99.90;;;;;;5071457;28;20618;-57
2021/06/03 03:27:38;;;;;;;11.32;7.25;;;17.10;99.90;;;;;;5053509;28;20419;-50
2021/06/03 03:30:05;;;;;;;10.80;7.32;;;17.20;99.90;;;;;;5071471;28;20505;-50
2021/06/03 03:32:31;;;;;;;11.30;7.40;;;17.30;99.90;;;;;;5070403;28;20853;-52
2021/06/03 03:34:59;;;;;;;11.75;7.55;;;17.40;99.90;;;;;;5071319;28;20407;-51
2021/06/03 03:37:25;;;;;;;11.80;7.00;;;17.40;99.90;;;;;;5070614;28;20394;-51
2021/06/03 03:39:51;;;;;;;9.48;6.97;;;17.40;99.90;;;;;;5071467;28;20376;-51
2021/06/03 03:42:16;;;;;;;10.63;7.63;;;17.40;99.90;;;;;;5070537;28;20388;-50
2021/06/03 03:44:42;;;;;;;11.10;7.60;;;17.30;99.90;;;;;;5072165;28;20941;-51
2021/06/03 03:47:08;;;;;;;10.67;7.40;;;18.50;99.90;;;;;;5091520;28;20374;-51
2021/06/03 03:49:34;;;;;;;10.93;7.05;;;17.30;99.90;;;;;;5090538;28;20378;-51
2021/06/03 03:52:02;;;;;;;12.18;8.57;;;17.10;99.90;;;;;;5085351;28;20792;-51
2021/06/03 03:54:30;;;;;;;10.77;7.67;;;17.00;99.90;;;;;;5069939;28;20450;-50
2021/06/03 03:56:56;;;;;;;11.00;7.73;;;17.00;99.90;;;;;;5076634;28;20383;-50
2021/06/03 03:59:21;;;;;;;11.25;7.22;;;17.10;99.90;;;;;;5090373;28;20515;-50
2021/06/03 04:01:51;;;;;;;14.63;8.23;;;17.20;99.90;;;;;;5091148;28;20370;-50
2021/06/03 04:04:17;;;;;;;12.80;8.07;;;17.20;99.90;;;;;;5090366;28;20386;-51
2021/06/03 04:06:43;;;;;;;11.13;8.20;;;17.30;99.90;;;;;;5091130;28;20393;-51
2021/06/03 04:09:09;;;;;;;12.55;7.60;;;17.40;99.90;;;;;;5074703;28;20384;-50
2021/06/03 04:11:35;;;;;;;10.73;7.60;;;17.40;99.90;;;;;;5070282;28;20384;-50
2021/06/03 04:14:00;;;;;;;10.65;7.13;;;17.60;99.90;;;;;;5070561;28;20513;-50
2021/06/03 04:16:27;;;;;;;11.07;7.50;;;17.80;99.90;;;;;;5069858;28;20463;-50
2021/06/03 04:18:52;;;;;;;12.07;7.30;;;17.80;99.90;;;;;;5070592;28;20375;-57
2021/06/03 04:21:18;;;;;;;10.80;7.80;;;17.80;99.90;;;;;;5069727;28;20398;-51
2021/06/03 04:23:45;;;;;;;12.15;7.95;;;17.80;99.90;;;;;;5070420;28;20384;-50
2021/06/03 04:26:11;;;;;;;12.50;7.70;;;17.80;99.90;;;;;;5070287;28;20384;-57
2021/06/03 04:28:37;;;;;;;10.70;7.10;;;17.80;99.90;;;;;;5070172;28;20437;-51
2021/06/03 04:31:02;;;;;;;11.00;6.90;;;18.00;99.90;;;;;;5070553;28;20473;-51
2021/06/03 04:33:28;;;;;;;10.93;7.40;;;18.10;99.90;;;;;;5069664;28;20772;-51
2021/06/03 04:35:54;;;;;;;12.37;8.20;;;18.20;99.90;;;;;;5070261;28;20416;-50
2021/06/03 04:38:19;;;;;;;10.17;7.33;;;18.20;99.90;;;;;;5051405;28;20387;-51
2021/06/03 04:40:45;;;;;;;12.00;7.60;;;18.30;99.90;;;;;;5069997;28;20396;-52
2021/06/03 04:43:11;;;;;;;11.90;7.97;;;18.30;99.90;;;;;;5069689;28;20471;-58
2021/06/03 04:45:37;;;;;;;10.53;7.77;;;18.30;99.90;;;;;;5069506;28;20379;-50
2021/06/03 04:48:08;;;;;;;12.10;7.50;;;18.30;99.90;;;;;;5070308;28;20412;-50
2021/06/03 04:50:34;;;;;;;11.23;7.77;;;18.30;99.90;;;;;;5070339;28;20399;-50
2021/06/03 04:53:01;;;;;;;12.60;7.88;;;18.30;99.90;;;;;;5071930;28;20436;-51
2021/06/03 04:55:26;;;;;;;13.07;8.48;;;18.30;99.90;;;;;;5089412;28;20803;-51
2021/06/03 04:57:54;;;;;;;13.37;9.30;;;18.30;99.90;;;;;;5090169;28;20390;-51
2021/06/03 05:00:28;;;;;;;11.27;8.68;;;18.50;99.90;;;;;;5089608;28;20385;-53
2021/06/03 05:02:55;;;;;;;12.77;8.30;;;18.60;99.90;;;;;;5071974;28;20868;-52
2021/06/03 05:05:21;;;;;;;12.65;9.18;;;18.70;99.90;;;;;;5089291;28;20390;-51
2021/06/03 05:07:47;;;;;;;14.23;9.20;;;18.80;99.90;;;;;;5089919;28;20468;-51
2021/06/03 05:10:14;;;;;;;13.63;8.87;;;18.90;99.90;;;;;;5071745;28;20425;-58
2021/06/03 05:12:40;;;;;;;13.55;8.15;;;18.80;99.90;;;;;;5089711;28;20388;-51
2021/06/03 05:15:07;;;;;;;12.88;8.70;;;18.80;99.90;;;;;;5089795;28;20497;-52
2021/06/03 05:17:34;;;;;;;12.80;9.50;;;18.80;99.90;;;;;;5089443;28;20962;-54
2021/06/03 05:20:00;;;;;;;14.90;8.60;;;18.90;99.90;;;;;;5086886;28;20392;-52
2021/06/03 05:22:26;;;;;;;15.80;8.40;;;19.00;99.90;;;;;;5089148;28;20481;-51
2021/06/03 05:24:52;;;;;;;11.30;8.40;;;19.20;99.90;;;;;;5089836;28;20790;-53
2021/06/03 05:27:18;;;;;;;12.55;8.40;;;19.10;99.90;;;;;;5088889;28;20461;-52
2021/06/03 05:29:44;;;;;;;12.45;8.20;;;19.10;99.90;;;;;;5089805;28;20398;-51
2021/06/03 05:32:10;;;;;;;12.23;8.30;;;19.10;99.90;;;;;;5089450;28;20373;-54
2021/06/03 05:34:36;;;;;;;12.50;7.67;;;19.40;99.90;;;;;;5086114;28;20920;-54
2021/06/03 05:37:03;;;;;;;13.38;7.97;;;19.60;99.90;;;;;;5061977;28;20387;-54
2021/06/03 05:39:28;;;;;;;12.52;8.25;;;19.80;99.90;;;;;;5058224;28;20406;-54
2021/06/03 05:41:54;;;;;;;9.95;7.60;;;19.90;99.90;;;;;;5073871;28;20372;-55
2021/06/03 05:44:20;;;;;;;11.50;7.22;;;20.10;99.90;;;;;;5068283;28;20412;-55
2021/06/03 05:46:46;;;;;;;12.03;7.83;;;20.40;99.90;;;;;;5069678;28;20383;-55
2021/06/03 05:49:12;;;;;;;10.05;7.10;;;20.70;99.90;;;;;;5079637;28;20471;-55
2021/06/03 05:51:40;;;;;;;15.63;7.55;;;20.90;99.90;;;;;;5074396;28;20497;-55
2021/06/03 05:54:07;;;;;;;9.70;7.03;;;20.00;99.90;;;;;;5073597;28;20397;-60
2021/06/03 05:56:33;;;;;;;11.43;7.20;;;21.30;99.90;;;;;;5066089;28;20471;-55
2021/06/03 05:58:58;;;;;;;11.15;7.30;;;21.70;99.90;;;;;;5050586;28;20392;-55
2021/06/03 06:01:25;;;;;;;10.70;7.10;;;22.40;99.90;;;;;;5068726;28;20762;-55
2021/06/03 06:08:42;;;;;;;9.70;6.03;;;23.40;99.90;;;;;;5079477;28;20381;-56
2021/06/03 06:11:09;;;;;;;12.15;6.70;;;24.50;99.90;;;;;;5079781;28;20378;-55
2021/06/03 06:13:35;;;;;;;9.15;6.00;;;24.20;99.90;;;;;;5060978;28;21015;-56
2021/06/03 06:16:01;;;;;;;9.23;5.90;;;23.70;99.90;;;;;;5078688;28;20419;-55
2021/06/03 06:18:27;;;;;;;8.83;5.70;;;23.60;99.90;;;;;;5082584;28;20384;-55
2021/06/03 06:20:53;;;;;;;9.20;5.80;;;24.70;99.90;;;;;;5065181;28;20953;-55
2021/06/03 06:23:18;;;;;;;7.50;4.85;;;25.50;99.90;;;;;;5065714;28;20454;-55
2021/06/03 06:25:45;;;;;;;8.43;5.30;;;26.10;99.90;;;;;;5089257;28;20389;-55
2021/06/03 06:28:12;;;;;;;8.00;5.28;;;25.90;99.90;;;;;;5080184;28;20398;-57
2021/06/03 06:30:37;;;;;;;8.30;5.50;;;25.90;99.90;;;;;;5081170;28;20380;-55
2021/06/03 06:33:04;;;;;;;8.80;5.50;;;25.80;99.90;;;;;;5082716;28;20722;-55
2021/06/03 06:35:30;;;;;;;7.77;5.33;;;25.10;99.90;;;;;;5060931;28;20419;-55
2021/06/03 06:37:56;;;;;;;7.80;5.47;;;24.70;99.90;;;;;;5072356;28;20375;-55
2021/06/03 06:40:22;;;;;;;8.07;5.20;;;24.40;99.90;;;;;;5079406;28;20394;-55
2021/06/03 06:42:54;;;;;;;7.65;5.43;;;24.30;99.90;;;;;;5079456;28;21159;-55
2021/06/03 06:45:24;;;;;;;25.00;12.25;;;24.40;99.90;;;;;;5063723;28;20406;-60
2021/06/03 06:47:50;;;;;;;15.88;10.02;;;23.90;99.90;;;;;;5064980;28;20894;-55
2021/06/03 06:50:16;;;;;;;16.10;13.27;;;23.60;99.90;;;;;;5080846;28;20380;-70
2021/06/03 06:52:42;;;;;;;14.88;10.68;;;23.50;99.90;;;;;;5080774;28;20922;-56
2021/06/03 06:55:09;;;;;;;13.70;9.00;;;23.20;99.90;;;;;;5082733;28;20406;-55
2021/06/03 06:57:35;;;;;;;11.07;7.45;;;23.10;99.90;;;;;;5080437;28;20387;-57
2021/06/03 07:00:04;;;;;;;14.20;9.00;;;23.50;99.90;;;;;;5081286;28;20374;-55
2021/06/03 07:02:30;;;;;;;10.35;6.18;;;24.20;99.90;;;;;;5079518;28;20527;-52
2021/06/03 07:04:55;;;;;;;10.38;6.40;;;24.10;99.90;;;;;;5076900;28;20465;-52
2021/06/03 07:07:21;;;;;;;8.20;5.63;;;24.40;99.90;;;;;;5081129;28;20816;-53
2021/06/03 07:09:47;;;;;;;7.73;5.00;;;25.20;99.90;;;;;;5082377;28;20382;-52
2021/06/03 07:12:13;;;;;;;8.50;5.20;;;26.10;99.90;;;;;;5076665;28;20372;-52
2021/06/03 07:14:39;;;;;;;8.48;5.00;;;27.50;99.90;;;;;;5076911;28;20407;-52
2021/06/03 07:17:06;;;;;;;7.50;3.90;;;29.40;95.00;;;;;;5082353;28;20385;-52
2021/06/03 07:19:32;;;;;;;7.63;4.10;;;30.30;90.50;;;;;;5081425;28;20713;-52
2021/06/03 07:21:58;;;;;;;6.57;4.00;;;30.40;86.80;;;;;;5079199;28;20505;-52
2021/06/03 07:24:23;;;;;;;7.25;4.10;;;29.60;88.30;;;;;;5080900;28;20389;-52
2021/06/03 07:26:49;;;;;;;9.15;5.20;;;29.10;90.10;;;;;;5083437;28;20491;-51
2021/06/03 07:29:15;;;;;;;8.05;4.90;;;28.90;90.10;;;;;;5080547;28;20398;-58
2021/06/03 07:31:40;;;;;;;8.48;4.65;;;28.60;91.50;;;;;;5083366;28;20529;-51
2021/06/03 07:34:07;;;;;;;6.30;4.15;;;28.50;90.70;;;;;;5076985;28;20790;-51
2021/06/03 07:36:34;;;;;;;7.10;4.33;;;28.40;90.30;;;;;;5079961;28;20421;-55
2021/06/03 07:39:02;;;;;;;9.52;5.50;;;28.20;90.70;;;;;;5083020;28;20475;-52
2021/06/03 07:41:28;;;;;;;10.25;6.30;;;28.00;91.60;;;;;;5082055;28;20379;-51
2021/06/03 07:43:54;;;;;;;8.93;5.90;;;27.80;91.70;;;;;;5075216;28;20741;-52
2021/06/03 07:46:19;;;;;;;8.60;5.50;;;27.60;92.40;;;;;;5087287;28;20414;-51
2021/06/03 07:48:45;;;;;;;9.90;5.70;;;28.00;91.20;;;;;;5084545;28;20391;-51
2021/06/03 07:51:11;;;;;;;8.35;5.30;;;28.10;91.70;;;;;;5073421;28;20414;-56
2021/06/03 07:53:38;;;;;;;9.73;5.75;;;28.90;91.10;;;;;;5075657;28;20389;-52
2021/06/03 07:56:05;;;;;;;8.30;5.10;;;30.00;88.00;;;;;;5078597;28;20749;-52
2021/06/03 07:58:31;;;;;;;10.23;5.22;;;30.70;84.60;;;;;;5077788;28;20386;-52
2021/06/03 08:00:56;;;;;;;9.30;5.88;;;31.70;80.20;;;;;;5078765;28;20388;-52
2021/06/03 08:03:22;;;;;;;6.80;4.50;;;33.40;71.50;;;;;;5072920;28;20376;-52
2021/06/03 08:05:48;;;;;;;8.80;4.60;;;35.00;61.00;;;;;;5089576;28;20852;-56
2021/06/03 08:08:14;;;;;;;10.30;5.30;;;34.10;61.00;;;;;;5080881;28;20383;-60
2021/06/03 08:10:41;;;;;;;8.10;4.57;;;33.80;61.70;;;;;;5083119;28;20467;-52
2021/06/03 08:13:08;;;;;;;6.53;3.90;;;34.30;59.80;;;;;;5073835;28;20392;-53
2021/06/03 08:15:36;;;;;;;7.60;3.90;;;35.00;57.70;;;;;;5080280;28;20438;-53
2021/06/03 08:18:03;;;;;;;8.40;3.90;;;35.20;55.90;;;;;;5079425;28;20383;-52
2021/06/03 08:20:36;;;;;;;8.93;4.00;;;35.30;54.40;;;;;;5081314;28;20452;-53
2021/06/03 08:23:03;;;;;;;7.50;4.30;;;36.20;53.60;;;;;;5073326;28;20434;-56
2021/06/03 08:25:29;;;;;;;6.38;3.50;;;36.80;51.90;;;;;;5079318;28;20406;-53
2021/06/03 08:27:55;;;;;;;6.00;3.73;;;36.60;51.80;;;;;;5083006;28;20411;-52
2021/06/03 08:30:21;;;;;;;7.00;4.30;;;37.50;49.80;;;;;;5073432;28;20383;-53
2021/06/03 08:32:49;;;;;;;8.80;3.80;;;37.90;48.60;;;;;;5079919;28;20445;-55
2021/06/03 08:35:17;;;;;;;8.43;3.72;;;37.90;47.70;;;;;;5079404;28;20501;-61
2021/06/03 08:37:47;;;;;;;6.68;4.00;;;39.00;45.90;;;;;;5083840;28;20395;-53
2021/06/03 08:40:17;;;;;;;7.65;3.90;;;38.80;46.20;;;;;;5078539;28;20374;-61
2021/06/03 08:42:43;;;;;;;7.18;4.10;;;39.50;45.40;;;;;;5075550;28;20470;-52
2021/06/03 08:45:12;;;;;;;8.30;4.20;;;39.40;44.50;;;;;;5063797;28;20403;-53
2021/06/03 08:47:38;;;;;;;6.53;3.60;;;39.40;44.70;;;;;;5080747;28;20396;-57
2021/06/03 08:50:05;;;;;;;10.40;4.45;;;39.30;45.00;;;;;;5075142;28;20390;-56
2021/06/03 08:52:31;;;;;;;9.50;4.10;;;38.10;46.20;;;;;;5075877;28;20891;-56
2021/06/03 08:54:58;;;;;;;7.28;4.25;;;37.80;46.30;;;;;;5077885;28;20468;-56
2021/06/03 08:57:24;;;;;;;6.95;4.13;;;37.60;46.70;;;;;;5076457;28;20413;-56
2021/06/03 08:59:51;;;;;;;8.35;4.07;;;38.60;45.40;;;;;;5077651;28;20392;-56
2021/06/03 09:02:18;;;;;;;6.82;4.35;;;39.00;44.90;;;;;;5078414;28;20901;-70
2021/06/03 09:04:43;;;;;;;7.70;4.45;;;38.60;44.70;;;;;;5077827;28;20375;-56
2021/06/03 09:07:33;;;;;;;7.10;4.50;;;38.40;44.80;;;;;;5076166;28;20401;-56
2021/06/03 09:10:31;;;;;;;7.70;4.40;;;38.00;45.40;;;;;;5075612;28;20419;-56
2021/06/03 09:13:08;;;;;;;6.83;4.40;;;37.30;46.70;;;;;;5079276;28;20415;-57
2021/06/03 09:15:34;;;;;;;9.73;4.82;;;36.00;48.40;;;;;;5077231;28;20422;-55
2021/06/03 09:18:02;;;;;;;8.52;5.00;;;34.90;49.00;;;;;;5071534;28;20442;-55
2021/06/03 09:20:28;;;;;;;7.18;4.50;;;34.60;50.30;;;;;;5075869;28;20392;-59
2021/06/03 09:22:54;;;;;;;7.22;4.50;;;35.60;50.10;;;;;;5072373;28;20479;-59
2021/06/03 09:25:34;;;;;;;7.40;4.40;;;36.40;49.40;;;;;;5078811;28;20948;-55
2021/06/03 09:28:26;;;;;;;6.70;4.60;;;35.80;48.10;;;;;;5078117;28;20429;-55
2021/06/03 09:31:04;;;;;;;7.25;4.45;;;34.30;50.80;;;;;;5081751;28;20395;-55
2021/06/03 09:33:48;;;;;;;10.32;4.30;;;34.80;50.30;;;;;;5070698;28;20400;-57
2021/06/03 09:36:35;;;;;;;8.38;4.40;;;35.70;49.60;;;;;;5071434;28;20441;-61
2021/06/03 09:39:12;;;;;;;6.90;4.00;;;36.80;48.30;;;;;;5071663;28;20395;-56
2021/06/03 09:41:46;;;;;;;6.23;3.87;;;37.10;47.50;;;;;;5070693;28;20384;-56
2021/06/03 09:44:13;;;;;;;7.20;4.40;;;37.40;46.70;;;;;;5068837;28;20449;-56
2021/06/03 09:46:44;;;;;;;7.90;4.40;;;37.40;47.00;;;;;;5068161;28;20390;-56
2021/06/03 09:49:19;;;;;;;8.60;4.30;;;36.90;46.40;;;;;;5068694;28;20380;-56
2021/06/03 09:51:46;;;;;;;7.75;4.10;;;36.90;46.60;;;;;;5074712;28;20407;-56
2021/06/03 09:54:19;;;;;;;7.70;4.40;;;36.40;46.40;;;;;;5081758;28;20394;-56
2021/06/03 09:56:47;;;;;;;7.10;4.20;;;35.70;47.70;;;;;;5079553;28;20488;-58
2021/06/03 09:59:36;;;;;;;7.38;4.03;;;34.90;49.20;;;;;;5079855;28;20538;-55
2021/06/03 10:02:07;;;;;;;6.60;3.83;;;34.50;49.70;;;;;;5082308;28;20431;-58
2021/06/03 10:04:38;;;;;;;7.15;4.15;;;34.60;49.70;;;;;;5077547;28;20395;-56
2021/06/03 10:07:23;;;;;;;8.10;4.60;;;33.90;51.00;;;;;;5076521;28;20396;-61
2021/06/03 10:09:48;;;;;;;6.80;3.83;;;33.60;50.90;;;;;;5075498;28;20386;-55
2021/06/03 10:12:39;;;;;;;7.40;4.40;;;32.60;52.70;;;;;;5058478;28;20410;-55
2021/06/03 10:15:33;;;;;;;7.68;4.35;;;34.10;51.60;;;;;;5076551;28;20412;-55
2021/06/03 10:18:02;;;;;;;9.25;4.47;;;34.70;50.70;;;;;;5075164;28;20400;-55
2021/06/03 10:20:48;;;;;;;8.25;4.32;;;35.10;49.30;;;;;;5077425;28;20472;-55
2021/06/03 10:23:23;;;;;;;6.50;3.80;;;34.20;50.80;;;;;;5057659;28;20398;-57
2021/06/03 10:25:56;;;;;;;7.77;3.83;;;34.10;50.00;;;;;;5076018;28;20429;-60
2021/06/03 10:28:25;;;;;;;6.40;3.90;;;34.20;50.60;;;;;;5082730;28;20848;-54
2021/06/03 10:30:55;;;;;;;6.80;3.80;;;33.20;52.20;;;;;;5080455;28;20473;-55
2021/06/03 10:33:27;;;;;;;7.60;3.90;;;32.30;53.60;;;;;;5057062;28;20396;-56
2021/06/03 10:35:56;;;;;;;6.10;3.67;;;31.30;55.30;;;;;;5076593;28;20908;-55
2021/06/03 10:38:22;;;;;;;8.35;3.80;;;31.10;55.50;;;;;;5059098;28;20409;-59
2021/06/03 10:40:54;;;;;;;6.57;3.80;;;30.80;55.60;;;;;;5077547;28;20402;-54
2021/06/03 10:43:19;;;;;;;8.30;4.10;;;30.40;56.90;;;;;;5077787;28;20390;-66
2021/06/03 10:45:45;;;;;;;8.33;4.00;;;29.60;58.90;;;;;;5082999;28;20753;-56
2021/06/03 10:48:11;;;;;;;8.70;4.00;;;28.90;61.00;;;;;;5078265;28;20753;-55
2021/06/03 10:50:49;;;;;;;7.43;3.83;;;28.50;61.50;;;;;;5077622;28;20396;-56
2021/06/03 10:53:29;;;;;;;7.03;3.80;;;28.50;62.40;;;;;;5078540;28;20402;-55
2021/06/03 10:56:06;;;;;;;7.07;3.88;;;28.70;62.90;;;;;;5074304;28;20415;-55
2021/06/03 10:58:38;;;;;;;7.63;4.15;;;28.80;63.10;;;;;;5083522;28;20457;-55
2021/06/03 11:01:05;;;;;;;9.40;4.20;;;29.50;61.80;;;;;;5056628;28;20380;-58
2021/06/03 11:03:47;;;;;;;7.03;3.63;;;29.90;60.90;;;;;;5087043;28;20385;-56
2021/06/03 11:06:19;;;;;;;7.05;4.03;;;30.30;59.30;;;;;;5083612;28;20823;-55
2021/06/03 11:09:08;;;;;;;6.50;3.95;;;30.20;59.20;;;;;;5076408;28;20406;-59
2021/06/03 11:11:43;;;;;;;7.70;3.90;;;30.40;59.50;;;;;;5064765;28;20401;-56
2021/06/03 11:14:20;;;;;;;6.50;3.90;;;30.10;60.50;;;;;;5062613;28;20485;-58
2021/06/03 11:16:54;;;;;;;7.43;4.25;;;31.00;62.40;;;;;;5077528;28;20784;-55
2021/06/03 11:19:25;;;;;;;6.93;3.90;;;29.30;62.10;;;;;;5076599;28;20735;-68
2021/06/03 11:21:51;;;;;;;9.82;4.68;;;28.90;63.40;;;;;;5082270;28;20398;-59
2021/06/03 11:24:31;;;;;;;7.22;3.72;;;28.70;65.60;;;;;;5089070;28;20394;-61
2021/06/03 11:26:59;;;;;;;7.57;4.03;;;27.90;70.30;;;;;;5081851;28;20475;-57
2021/06/03 11:29:30;;;;;;;7.32;3.97;;;27.10;76.10;;;;;;5073752;28;20386;-55
2021/06/03 11:32:04;;;;;;;11.38;5.35;;;26.30;84.30;;;;;;5083898;28;20846;-54
2021/06/03 11:34:52;;;;;;;17.40;5.60;;;25.30;99.90;;;;;;5077274;28;20391;-52
2021/06/03 11:37:25;;;;;;;7.65;4.10;;;24.00;99.90;;;;;;5054930;28;20420;-58
2021/06/03 11:39:56;;;;;;;11.50;4.45;;;22.80;99.90;;;;;;5076463;28;20431;-51
2021/06/03 11:42:39;;;;;;;10.35;4.60;;;21.80;99.90;;;;;;5079054;28;20933;-57
2021/06/03 11:45:13;;;;;;;17.65;7.38;;;21.50;99.90;;;;;;5060311;28;20397;-51
2021/06/03 11:47:39;;;;;;;12.30;6.47;;;21.40;99.90;;;;;;5076234;28;20448;-51
2021/06/03 11:50:11;;;;;;;13.82;7.75;;;20.60;99.90;;;;;;5082576;28;20447;-51
2021/06/03 11:52:37;;;;;;;12.20;5.82;;;20.80;99.90;;;;;;5075137;28;20544;-54
2021/06/03 11:55:08;;;;;;;9.07;4.67;;;20.80;99.90;;;;;;5083923;28;20456;-52
2021/06/03 11:57:36;;;;;;;11.50;4.70;;;21.10;99.90;;;;;;5073645;28;20495;-53
2021/06/03 12:00:13;;;;;;;10.90;5.60;;;21.30;99.90;;;;;;5080418;28;20374;-51
2021/06/03 12:02:44;;;;;;;9.25;6.28;;;21.60;99.90;;;;;;5075923;28;20520;-53
2021/06/03 12:05:12;;;;;;;8.93;6.82;;;21.90;99.90;;;;;;5060840;28;20398;-51
2021/06/03 12:07:42;;;;;;;9.63;7.00;;;22.20;99.90;;;;;;5063692;28;21039;-51
2021/06/03 12:10:09;;;;;;;10.05;5.90;;;22.50;99.90;;;;;;5078721;28;20673;-51
2021/06/03 12:12:36;;;;;;;9.48;5.10;;;22.90;99.90;;;;;;5080688;28;20725;-51
2021/06/03 12:15:14;;;;;;;7.20;4.40;;;23.20;99.90;;;;;;5079602;28;20406;-51
2021/06/03 12:17:40;;;;;;;6.40;3.90;;;23.80;99.90;;;;;;5057684;28;20446;-52
2021/06/03 12:20:09;;;;;;;5.20;3.03;;;24.10;99.90;;;;;;5077091;28;20399;-51
2021/06/03 12:22:35;;;;;;;6.95;3.65;;;24.60;99.90;;;;;;5076975;28;20388;-56
2021/06/03 12:25:01;;;;;;;7.80;3.50;;;25.00;99.90;;;;;;5075873;28;20414;-52
2021/06/03 12:27:34;;;;;;;6.60;3.33;;;25.40;99.90;;;;;;5074527;28;20400;-57
2021/06/03 12:30:15;;;;;;;6.40;3.38;;;25.50;99.90;;;;;;5074643;28;20831;-51
2021/06/03 12:33:00;;;;;;;6.50;2.90;;;26.00;99.90;;;;;;5061548;28;20480;-50
2021/06/03 12:35:41;;;;;;;6.40;3.80;;;26.40;99.90;;;;;;5075294;28;20957;-55
2021/06/03 12:38:09;;;;;;;6.72;3.60;;;26.70;99.90;;;;;;5071086;28;20407;-51
2021/06/03 12:40:36;;;;;;;6.73;3.60;;;26.90;99.90;;;;;;5058561;28;20458;-51
2021/06/03 12:43:10;;;;;;;5.53;3.28;;;26.70;99.90;;;;;;5081653;28;20378;-50
2021/06/03 12:45:41;;;;;;;10.73;4.40;;;26.40;99.90;;;;;;5075175;28;21745;-54
2021/06/03 12:48:09;;;;;;;7.00;3.20;;;26.50;99.90;;;;;;5077213;28;20899;-54
2021/06/03 12:50:49;;;;;;;6.60;3.80;;;26.80;99.90;;;;;;5070775;28;20410;-50
2021/06/03 12:53:17;;;;;;;6.97;3.60;;;27.40;99.90;;;;;;5079508;28;20703;-51
2021/06/03 12:55:45;;;;;;;8.30;4.00;;;27.50;99.90;;;;;;5076874;28;20508;-50
2021/06/03 12:58:13;;;;;;;6.82;3.70;;;27.70;99.90;;;;;;5075271;28;20399;-51